sensor_id;sensor_type;location;lat;lon;timestamp;temperature;humidity
18153;DHT22;9202;51.578;7.734;2022-08-19T00:00:18;18.20;99.90
18153;DHT22;9202;51.578;7.734;2022-08-19T00:02:22;18.10;99.90
18153;DHT22;9202;51.578;7.734;2022-08-19T00:06:45;18.00;99.90
18153;DHT22;9202;51.578;7.734;2022-08-19T00:08:48;18.00;99.90
18153;DHT22;9202;51.578;7.734;2022-08-19T00:10:54;18.00;99.90
18153;DHT22;9202;51.578;7.734;2022-08-19T00:12:57;18.00;99.90
18153;DHT22;9202;51.578;7.734;2022-08-19T00:15:01;17.80;99.90
18153;DHT22;9202;51.578;7.734;2022-08-19T00:17:05;17.80;99.90
18153;DHT22;9202;51.578;7.734;2022-08-19T00:19:09;17.90;99.90
18153;DHT22;9202;51.578;7.734;2022-08-19T00:21:13;17.80;99.90
18153;DHT22;9202;51.578;7.734;2022-08-19T00:23:17;17.80;99.90
18153;DHT22;9202;51.578;7.734;2022-08-19T00:27:39;17.70;99.90
18153;DHT22;9202;51.578;7.734;2022-08-19T00:29:43;17.70;99.90
18153;DHT22;9202;51.578;7.734;2022-08-19T00:31:48;17.60;99.90
18153;DHT22;9202;51.578;7.734;2022-08-19T00:33:53;17.60;99.90
18153;DHT22;9202;51.578;7.734;2022-08-19T00:35:56;17.50;99.90
18153;DHT22;9202;51.578;7.734;2022-08-19T00:38:00;17.50;99.90
18153;DHT22;9202;51.578;7.734;2022-08-19T00:40:06;17.50;99.90
18153;DHT22;9202;51.578;7.734;2022-08-19T00:42:10;17.50;99.90
18153;DHT22;9202;51.578;7.734;2022-08-19T00:44:19;17.50;99.90
18153;DHT22;9202;51.578;7.734;2022-08-19T00:48:44;17.40;99.90
18153;DHT22;9202;51.578;7.734;2022-08-19T00:50:49;17.40;99.90
18153;DHT22;9202;51.578;7.734;2022-08-19T00:52:54;17.40;99.90
18153;DHT22;9202;51.578;7.734;2022-08-19T00:54:59;17.40;99.90
18153;DHT22;9202;51.578;7.734;2022-08-19T00:57:06;17.40;99.90
18153;DHT22;9202;51.578;7.734;2022-08-19T00:59:10;17.40;99.90
18153;DHT22;9202;51.578;7.734;2022-08-19T01:01:14;17.40;99.90
18153;DHT22;9202;51.578;7.734;2022-08-19T01:03:20;17.40;99.90
18153;DHT22;9202;51.578;7.734;2022-08-19T01:05:27;17.50;99.90
18153;DHT22;9202;51.578;7.734;2022-08-19T01:09:48;17.50;99.90
18153;DHT22;9202;51.578;7.734;2022-08-19T01:11:52;17.40;99.90
18153;DHT22;9202;51.578;7.734;2022-08-19T01:13:56;17.40;99.90
18153;DHT22;9202;51.578;7.734;2022-08-19T01:16:03;17.30;99.90
18153;DHT22;9202;51.578;7.734;2022-08-19T01:18:09;17.30;99.90
18153;DHT22;9202;51.578;7.734;2022-08-19T01:20:17;17.30;99.90
18153;DHT22;9202;51.578;7.734;2022-08-19T01:22:25;17.30;99.90
18153;DHT22;9202;51.578;7.734;2022-08-19T01:26:50;17.30;99.90
18153;DHT22;9202;51.578;7.734;2022-08-19T01:28:56;17.40;99.90
18153;DHT22;9202;51.578;7.734;2022-08-19T01:31:02;17.30;99.90
18153;DHT22;9202;51.578;7.734;2022-08-19T01:33:08;17.30;99.90
18153;DHT22;9202;51.578;7.734;2022-08-19T01:35:13;17.30;99.90
18153;DHT22;9202;51.578;7.734;2022-08-19T01:37:18;17.20;99.90
18153;DHT22;9202;51.578;7.734;2022-08-19T01:41:42;17.10;99.90
18153;DHT22;9202;51.578;7.734;2022-08-19T01:43:46;16.90;99.90
18153;DHT22;9202;51.578;7.734;2022-08-19T01:45:52;16.90;99.90
18153;DHT22;9202;51.578;7.734;2022-08-19T01:47:56;16.80;99.90
18153;DHT22;9202;51.578;7.734;2022-08-19T01:50:03;16.80;99.90
18153;DHT22;9202;51.578;7.734;2022-08-19T01:52:06;16.80;99.90
18153;DHT22;9202;51.578;7.734;2022-08-19T01:54:11;16.70;99.90
18153;DHT22;9202;51.578;7.734;2022-08-19T01:56:16;16.70;99.90
18153;DHT22;9202;51.578;7.734;2022-08-19T01:58:23;16.70;99.90
18153;DHT22;9202;51.578;7.734;2022-08-19T02:02:49;16.70;99.90
18153;DHT22;9202;51.578;7.734;2022-08-19T02:04:57;16.70;99.90
18153;DHT22;9202;51.578;7.734;2022-08-19T02:07:08;16.60;99.90
18153;DHT22;9202;51.578;7.734;2022-08-19T02:09:11;16.60;99.90
18153;DHT22;9202;51.578;7.734;2022-08-19T02:11:21;16.60;99.90
18153;DHT22;9202;51.578;7.734;2022-08-19T02:13:26;16.60;99.90
18153;DHT22;9202;51.578;7.734;2022-08-19T02:15:29;16.60;99.90
18153;DHT22;9202;51.578;7.734;2022-08-19T02:17:33;16.60;99.90
18153;DHT22;9202;51.578;7.734;2022-08-19T02:21:53;16.60;99.90
18153;DHT22;9202;51.578;7.734;2022-08-19T02:23:57;16.60;99.90
18153;DHT22;9202;51.578;7.734;2022-08-19T02:26:00;16.50;99.90
18153;DHT22;9202;51.578;7.734;2022-08-19T02:28:05;16.50;99.90
18153;DHT22;9202;51.578;7.734;2022-08-19T02:30:12;16.50;99.90
18153;DHT22;9202;51.578;7.734;2022-08-19T02:32:17;16.50;99.90
18153;DHT22;9202;51.578;7.734;2022-08-19T02:34:22;16.60;99.90
18153;DHT22;9202;51.578;7.734;2022-08-19T02:36:27;16.60;99.90
18153;DHT22;9202;51.578;7.734;2022-08-19T02:40:51;16.50;99.90
18153;DHT22;9202;51.578;7.734;2022-08-19T02:42:55;16.60;99.90
18153;DHT22;9202;51.578;7.734;2022-08-19T02:45:00;16.60;99.90
18153;DHT22;9202;51.578;7.734;2022-08-19T02:47:04;16.60;99.90
18153;DHT22;9202;51.578;7.734;2022-08-19T02:49:08;16.70;99.90
18153;DHT22;9202;51.578;7.734;2022-08-19T02:51:17;16.70;99.90
18153;DHT22;9202;51.578;7.734;2022-08-19T02:53:21;16.70;99.90
18153;DHT22;9202;51.578;7.734;2022-08-19T02:55:25;16.70;99.90
18153;DHT22;9202;51.578;7.734;2022-08-19T02:57:30;16.70;99.90
18153;DHT22;9202;51.578;7.734;2022-08-19T03:01:52;16.60;99.90
18153;DHT22;9202;51.578;7.734;2022-08-19T03:03:57;16.60;99.90
18153;DHT22;9202;51.578;7.734;2022-08-19T03:06:10;16.60;99.90
18153;DHT22;9202;51.578;7.734;2022-08-19T03:08:15;16.60;99.90
18153;DHT22;9202;51.578;7.734;2022-08-19T03:10:19;16.60;99.90
18153;DHT22;9202;51.578;7.734;2022-08-19T03:12:23;16.60;99.90
18153;DHT22;9202;51.578;7.734;2022-08-19T03:14:26;16.60;99.90
18153;DHT22;9202;51.578;7.734;2022-08-19T03:18:50;16.40;99.90
18153;DHT22;9202;51.578;7.734;2022-08-19T03:20:54;16.40;99.90
18153;DHT22;9202;51.578;7.734;2022-08-19T03:25:13;16.20;99.90
18153;DHT22;9202;51.578;7.734;2022-08-19T03:27:17;16.20;99.90
18153;DHT22;9202;51.578;7.734;2022-08-19T03:29:20;16.20;99.90
18153;DHT22;9202;51.578;7.734;2022-08-19T03:31:27;16.10;99.90
18153;DHT22;9202;51.578;7.734;2022-08-19T03:36:05;16.20;99.90
18153;DHT22;9202;51.578;7.734;2022-08-19T03:38:10;16.20;99.90
18153;DHT22;9202;51.578;7.734;2022-08-19T03:40:13;16.30;99.90
18153;DHT22;9202;51.578;7.734;2022-08-19T03:42:19;16.30;99.90
18153;DHT22;9202;51.578;7.734;2022-08-19T03:44:24;16.30;99.90
18153;DHT22;9202;51.578;7.734;2022-08-19T03:46:29;16.30;99.90
18153;DHT22;9202;51.578;7.734;2022-08-19T03:48:36;16.40;99.90
18153;DHT22;9202;51.578;7.734;2022-08-19T03:52:56;16.20;99.90
18153;DHT22;9202;51.578;7.734;2022-08-19T03:54:59;16.20;99.90
18153;DHT22;9202;51.578;7.734;2022-08-19T03:57:04;16.10;99.90
18153;DHT22;9202;51.578;7.734;2022-08-19T03:59:13;16.10;99.90
18153;DHT22;9202;51.578;7.734;2022-08-19T04:01:19;16.10;99.90
18153;DHT22;9202;51.578;7.734;2022-08-19T04:03:25;16.10;99.90
18153;DHT22;9202;51.578;7.734;2022-08-19T04:05:29;16.10;99.90
18153;DHT22;9202;51.578;7.734;2022-08-19T04:07:34;16.10;99.90
18153;DHT22;9202;51.578;7.734;2022-08-19T04:09:38;16.00;99.90
18153;DHT22;9202;51.578;7.734;2022-08-19T04:11:44;16.00;99.90
18153;DHT22;9202;51.578;7.734;2022-08-19T04:13:48;16.10;99.90
18153;DHT22;9202;51.578;7.734;2022-08-19T04:15:52;16.20;99.90
18153;DHT22;9202;51.578;7.734;2022-08-19T04:17:56;16.20;99.90
18153;DHT22;9202;51.578;7.734;2022-08-19T04:20:00;16.20;99.90
18153;DHT22;9202;51.578;7.734;2022-08-19T04:22:05;16.20;99.90
18153;DHT22;9202;51.578;7.734;2022-08-19T04:24:11;16.30;99.90
18153;DHT22;9202;51.578;7.734;2022-08-19T04:26:16;16.30;99.90
18153;DHT22;9202;51.578;7.734;2022-08-19T04:28:21;16.30;99.90
18153;DHT22;9202;51.578;7.734;2022-08-19T04:30:25;16.30;99.90
18153;DHT22;9202;51.578;7.734;2022-08-19T04:32:28;16.30;99.90
18153;DHT22;9202;51.578;7.734;2022-08-19T04:34:34;16.30;99.90
18153;DHT22;9202;51.578;7.734;2022-08-19T04:38:56;16.30;99.90
18153;DHT22;9202;51.578;7.734;2022-08-19T04:41:01;16.40;99.90
18153;DHT22;9202;51.578;7.734;2022-08-19T04:43:23;16.40;99.90
18153;DHT22;9202;51.578;7.734;2022-08-19T04:45:27;16.40;99.90
18153;DHT22;9202;51.578;7.734;2022-08-19T04:47:32;16.30;99.90
18153;DHT22;9202;51.578;7.734;2022-08-19T04:51:55;16.10;99.90
18153;DHT22;9202;51.578;7.734;2022-08-19T04:54:00;16.30;99.90
18153;DHT22;9202;51.578;7.734;2022-08-19T04:56:07;16.30;99.90
18153;DHT22;9202;51.578;7.734;2022-08-19T04:58:11;16.40;99.90
18153;DHT22;9202;51.578;7.734;2022-08-19T05:00:15;16.40;99.90
18153;DHT22;9202;51.578;7.734;2022-08-19T05:02:18;16.40;99.90
18153;DHT22;9202;51.578;7.734;2022-08-19T05:04:22;16.40;99.90
18153;DHT22;9202;51.578;7.734;2022-08-19T05:06:25;16.30;99.90
18153;DHT22;9202;51.578;7.734;2022-08-19T05:08:29;16.20;99.90
18153;DHT22;9202;51.578;7.734;2022-08-19T05:10:36;16.20;99.90
18153;DHT22;9202;51.578;7.734;2022-08-19T05:14:56;16.00;99.90
18153;DHT22;9202;51.578;7.734;2022-08-19T05:17:01;15.80;99.90
18153;DHT22;9202;51.578;7.734;2022-08-19T05:19:07;15.80;99.90
18153;DHT22;9202;51.578;7.734;2022-08-19T05:21:29;15.70;99.90
18153;DHT22;9202;51.578;7.734;2022-08-19T05:23:51;15.60;99.90
18153;DHT22;9202;51.578;7.734;2022-08-19T05:25:55;15.60;99.90
18153;DHT22;9202;51.578;7.734;2022-08-19T05:27:58;15.70;99.90
18153;DHT22;9202;51.578;7.734;2022-08-19T05:30:03;15.80;99.90
18153;DHT22;9202;51.578;7.734;2022-08-19T05:32:07;15.80;99.90
18153;DHT22;9202;51.578;7.734;2022-08-19T05:34:11;15.90;99.90
18153;DHT22;9202;51.578;7.734;2022-08-19T05:36:17;16.00;99.90
18153;DHT22;9202;51.578;7.734;2022-08-19T05:38:22;16.00;99.90
18153;DHT22;9202;51.578;7.734;2022-08-19T05:40:26;16.10;99.90
18153;DHT22;9202;51.578;7.734;2022-08-19T05:42:31;16.10;99.90
18153;DHT22;9202;51.578;7.734;2022-08-19T05:44:36;16.10;99.90
18153;DHT22;9202;51.578;7.734;2022-08-19T05:46:41;16.10;99.90
18153;DHT22;9202;51.578;7.734;2022-08-19T05:48:46;16.20;99.90
18153;DHT22;9202;51.578;7.734;2022-08-19T05:50:49;16.20;99.90
18153;DHT22;9202;51.578;7.734;2022-08-19T05:52:53;16.20;99.90
18153;DHT22;9202;51.578;7.734;2022-08-19T05:54:57;16.30;99.90
18153;DHT22;9202;51.578;7.734;2022-08-19T05:57:01;16.40;99.90
18153;DHT22;9202;51.578;7.734;2022-08-19T05:59:05;16.40;99.90
18153;DHT22;9202;51.578;7.734;2022-08-19T06:01:14;16.50;99.90
18153;DHT22;9202;51.578;7.734;2022-08-19T06:03:18;16.60;99.90
18153;DHT22;9202;51.578;7.734;2022-08-19T06:05:21;16.60;99.90
18153;DHT22;9202;51.578;7.734;2022-08-19T06:07:25;16.70;99.90
18153;DHT22;9202;51.578;7.734;2022-08-19T06:09:29;16.80;99.90
18153;DHT22;9202;51.578;7.734;2022-08-19T06:11:35;16.80;99.90
18153;DHT22;9202;51.578;7.734;2022-08-19T06:13:39;16.90;99.90
18153;DHT22;9202;51.578;7.734;2022-08-19T06:15:42;17.00;99.90
18153;DHT22;9202;51.578;7.734;2022-08-19T06:20:08;17.10;99.90
18153;DHT22;9202;51.578;7.734;2022-08-19T06:22:18;17.10;99.90
18153;DHT22;9202;51.578;7.734;2022-08-19T06:24:27;17.20;99.90
18153;DHT22;9202;51.578;7.734;2022-08-19T06:26:46;17.30;99.90
18153;DHT22;9202;51.578;7.734;2022-08-19T06:28:51;17.40;99.90
18153;DHT22;9202;51.578;7.734;2022-08-19T06:30:55;17.40;99.90
18153;DHT22;9202;51.578;7.734;2022-08-19T06:32:59;17.50;99.90
18153;DHT22;9202;51.578;7.734;2022-08-19T06:35:03;17.50;99.90
18153;DHT22;9202;51.578;7.734;2022-08-19T06:37:08;17.70;99.90
18153;DHT22;9202;51.578;7.734;2022-08-19T06:39:14;17.80;99.90
18153;DHT22;9202;51.578;7.734;2022-08-19T06:41:18;17.90;99.90
18153;DHT22;9202;51.578;7.734;2022-08-19T06:43:21;18.10;99.90
18153;DHT22;9202;51.578;7.734;2022-08-19T06:45:27;18.30;99.90
18153;DHT22;9202;51.578;7.734;2022-08-19T06:47:32;18.50;99.90
18153;DHT22;9202;51.578;7.734;2022-08-19T06:49:37;18.60;99.90
18153;DHT22;9202;51.578;7.734;2022-08-19T06:53:59;18.90;99.90
18153;DHT22;9202;51.578;7.734;2022-08-19T06:56:03;19.00;99.90
18153;DHT22;9202;51.578;7.734;2022-08-19T06:58:07;19.10;99.90
18153;DHT22;9202;51.578;7.734;2022-08-19T07:00:13;19.10;99.90
18153;DHT22;9202;51.578;7.734;2022-08-19T07:02:17;19.20;99.90
18153;DHT22;9202;51.578;7.734;2022-08-19T07:04:24;19.20;99.90
18153;DHT22;9202;51.578;7.734;2022-08-19T07:08:43;19.30;99.90
18153;DHT22;9202;51.578;7.734;2022-08-19T07:10:49;19.30;99.90
18153;DHT22;9202;51.578;7.734;2022-08-19T07:12:58;19.30;99.90
18153;DHT22;9202;51.578;7.734;2022-08-19T07:15:02;19.40;99.90
18153;DHT22;9202;51.578;7.734;2022-08-19T07:17:10;19.40;99.90
18153;DHT22;9202;51.578;7.734;2022-08-19T07:19:14;19.40;99.90
18153;DHT22;9202;51.578;7.734;2022-08-19T07:21:23;19.50;99.90
18153;DHT22;9202;51.578;7.734;2022-08-19T07:25:45;19.60;99.90
18153;DHT22;9202;51.578;7.734;2022-08-19T07:27:51;19.80;99.90
18153;DHT22;9202;51.578;7.734;2022-08-19T07:29:56;19.80;99.90
18153;DHT22;9202;51.578;7.734;2022-08-19T07:32:03;20.00;99.90
18153;DHT22;9202;51.578;7.734;2022-08-19T07:34:08;20.00;99.90
18153;DHT22;9202;51.578;7.734;2022-08-19T07:36:14;20.20;99.90
18153;DHT22;9202;51.578;7.734;2022-08-19T07:38:17;20.30;99.90
18153;DHT22;9202;51.578;7.734;2022-08-19T07:40:24;20.50;99.90
18153;DHT22;9202;51.578;7.734;2022-08-19T07:42:28;20.50;99.90
18153;DHT22;9202;51.578;7.734;2022-08-19T07:46:50;20.70;99.90
18153;DHT22;9202;51.578;7.734;2022-08-19T07:48:55;20.90;99.90
18153;DHT22;9202;51.578;7.734;2022-08-19T07:51:02;21.00;99.90
18153;DHT22;9202;51.578;7.734;2022-08-19T07:53:06;21.10;99.90
18153;DHT22;9202;51.578;7.734;2022-08-19T07:55:10;21.10;99.90
18153;DHT22;9202;51.578;7.734;2022-08-19T07:57:16;21.30;99.90
18153;DHT22;9202;51.578;7.734;2022-08-19T07:59:22;21.30;99.90
18153;DHT22;9202;51.578;7.734;2022-08-19T08:01:27;21.40;99.90
18153;DHT22;9202;51.578;7.734;2022-08-19T08:03:31;21.50;99.90
18153;DHT22;9202;51.578;7.734;2022-08-19T08:05:53;21.70;99.90
18153;DHT22;9202;51.578;7.734;2022-08-19T08:08:14;21.80;99.90
18153;DHT22;9202;51.578;7.734;2022-08-19T08:10:35;21.90;99.90
18153;DHT22;9202;51.578;7.734;2022-08-19T08:15:01;22.20;99.90
18153;DHT22;9202;51.578;7.734;2022-08-19T08:17:07;22.20;99.90
18153;DHT22;9202;51.578;7.734;2022-08-19T08:19:14;22.20;99.90
18153;DHT22;9202;51.578;7.734;2022-08-19T08:21:19;22.40;99.90
18153;DHT22;9202;51.578;7.734;2022-08-19T08:23:24;22.40;99.90
18153;DHT22;9202;51.578;7.734;2022-08-19T08:25:28;22.40;99.90
18153;DHT22;9202;51.578;7.734;2022-08-19T08:27:36;22.40;99.90
18153;DHT22;9202;51.578;7.734;2022-08-19T08:29:42;22.40;99.90
18153;DHT22;9202;51.578;7.734;2022-08-19T08:31:47;22.50;99.90
18153;DHT22;9202;51.578;7.734;2022-08-19T08:33:53;22.50;99.90
18153;DHT22;9202;51.578;7.734;2022-08-19T08:35:57;22.50;99.90
18153;DHT22;9202;51.578;7.734;2022-08-19T08:38:01;22.50;99.90
18153;DHT22;9202;51.578;7.734;2022-08-19T08:40:11;22.60;99.90
18153;DHT22;9202;51.578;7.734;2022-08-19T08:44:38;22.80;99.90
18153;DHT22;9202;51.578;7.734;2022-08-19T08:49:06;23.10;99.90
18153;DHT22;9202;51.578;7.734;2022-08-19T08:51:22;23.30;99.90
18153;DHT22;9202;51.578;7.734;2022-08-19T08:53:23;23.50;99.90
18153;DHT22;9202;51.578;7.734;2022-08-19T08:55:30;23.40;99.90
18153;DHT22;9202;51.578;7.734;2022-08-19T09:00:00;23.20;99.90
18153;DHT22;9202;51.578;7.734;2022-08-19T09:02:08;23.10;99.90
18153;DHT22;9202;51.578;7.734;2022-08-19T09:04:13;23.10;99.90
18153;DHT22;9202;51.578;7.734;2022-08-19T09:08:43;23.30;99.90
18153;DHT22;9202;51.578;7.734;2022-08-19T09:10:49;23.50;99.90
18153;DHT22;9202;51.578;7.734;2022-08-19T09:13:01;23.60;99.90
18153;DHT22;9202;51.578;7.734;2022-08-19T09:15:09;23.80;99.90
18153;DHT22;9202;51.578;7.734;2022-08-19T09:17:14;23.90;99.90
18153;DHT22;9202;51.578;7.734;2022-08-19T09:19:17;23.80;99.90
18153;DHT22;9202;51.578;7.734;2022-08-19T09:21:23;23.70;99.90
18153;DHT22;9202;51.578;7.734;2022-08-19T09:23:29;23.70;99.90
18153;DHT22;9202;51.578;7.734;2022-08-19T09:25:35;23.80;99.90
18153;DHT22;9202;51.578;7.734;2022-08-19T09:27:41;24.00;99.90
18153;DHT22;9202;51.578;7.734;2022-08-19T09:29:48;24.10;99.90
18153;DHT22;9202;51.578;7.734;2022-08-19T09:32:05;24.20;99.90
18153;DHT22;9202;51.578;7.734;2022-08-19T09:34:12;24.40;99.90
18153;DHT22;9202;51.578;7.734;2022-08-19T09:36:22;24.50;99.90
18153;DHT22;9202;51.578;7.734;2022-08-19T09:38:32;24.50;99.90
18153;DHT22;9202;51.578;7.734;2022-08-19T09:40:37;24.40;99.90
18153;DHT22;9202;51.578;7.734;2022-08-19T09:42:45;24.40;99.90
18153;DHT22;9202;51.578;7.734;2022-08-19T09:44:52;24.30;99.90
18153;DHT22;9202;51.578;7.734;2022-08-19T09:46:56;24.30;99.90
18153;DHT22;9202;51.578;7.734;2022-08-19T09:51:17;24.80;99.90
18153;DHT22;9202;51.578;7.734;2022-08-19T09:53:23;24.90;99.90
18153;DHT22;9202;51.578;7.734;2022-08-19T09:55:28;24.90;99.90
18153;DHT22;9202;51.578;7.734;2022-08-19T09:57:34;25.00;99.90
18153;DHT22;9202;51.578;7.734;2022-08-19T09:59:39;25.00;99.90
18153;DHT22;9202;51.578;7.734;2022-08-19T10:01:43;25.00;99.90
18153;DHT22;9202;51.578;7.734;2022-08-19T10:03:50;24.90;99.90
18153;DHT22;9202;51.578;7.734;2022-08-19T10:08:13;24.60;99.90
18153;DHT22;9202;51.578;7.734;2022-08-19T10:10:18;24.60;99.90
18153;DHT22;9202;51.578;7.734;2022-08-19T10:12:22;24.70;99.90
18153;DHT22;9202;51.578;7.734;2022-08-19T10:14:28;25.00;99.90
18153;DHT22;9202;51.578;7.734;2022-08-19T10:16:33;25.30;99.90
18153;DHT22;9202;51.578;7.734;2022-08-19T10:18:38;25.50;99.90
18153;DHT22;9202;51.578;7.734;2022-08-19T10:20:46;25.40;99.90
18153;DHT22;9202;51.578;7.734;2022-08-19T10:22:52;25.40;99.90
18153;DHT22;9202;51.578;7.734;2022-08-19T10:24:56;25.40;99.90
18153;DHT22;9202;51.578;7.734;2022-08-19T10:27:00;25.50;99.90
18153;DHT22;9202;51.578;7.734;2022-08-19T10:29:05;25.50;99.90
18153;DHT22;9202;51.578;7.734;2022-08-19T10:31:14;25.70;99.90
18153;DHT22;9202;51.578;7.734;2022-08-19T10:33:19;25.90;99.90
18153;DHT22;9202;51.578;7.734;2022-08-19T10:35:25;26.10;99.90
18153;DHT22;9202;51.578;7.734;2022-08-19T10:37:31;26.20;99.90
18153;DHT22;9202;51.578;7.734;2022-08-19T10:39:36;26.10;99.90
18153;DHT22;9202;51.578;7.734;2022-08-19T10:41:41;26.00;99.90
18153;DHT22;9202;51.578;7.734;2022-08-19T10:43:46;26.00;99.90
18153;DHT22;9202;51.578;7.734;2022-08-19T10:45:53;26.20;99.90
18153;DHT22;9202;51.578;7.734;2022-08-19T10:47:59;26.40;99.90
18153;DHT22;9202;51.578;7.734;2022-08-19T10:50:06;26.50;99.90
18153;DHT22;9202;51.578;7.734;2022-08-19T10:52:29;26.50;99.90
18153;DHT22;9202;51.578;7.734;2022-08-19T10:54:41;26.70;99.90
18153;DHT22;9202;51.578;7.734;2022-08-19T10:57:05;26.90;99.90
18153;DHT22;9202;51.578;7.734;2022-08-19T10:59:09;27.20;99.90
18153;DHT22;9202;51.578;7.734;2022-08-19T11:01:12;27.30;99.90
18153;DHT22;9202;51.578;7.734;2022-08-19T11:03:16;27.20;99.90
18153;DHT22;9202;51.578;7.734;2022-08-19T11:05:20;27.00;99.90
18153;DHT22;9202;51.578;7.734;2022-08-19T11:07:26;26.60;99.90
18153;DHT22;9202;51.578;7.734;2022-08-19T11:09:31;26.50;99.90
18153;DHT22;9202;51.578;7.734;2022-08-19T11:11:36;26.30;99.90
18153;DHT22;9202;51.578;7.734;2022-08-19T11:13:42;26.10;99.90
18153;DHT22;9202;51.578;7.734;2022-08-19T11:15:46;26.20;99.90
18153;DHT22;9202;51.578;7.734;2022-08-19T11:17:51;26.10;99.90
18153;DHT22;9202;51.578;7.734;2022-08-19T11:19:57;25.90;99.90
18153;DHT22;9202;51.578;7.734;2022-08-19T11:22:01;25.90;99.90
18153;DHT22;9202;51.578;7.734;2022-08-19T11:26:23;25.80;99.90
18153;DHT22;9202;51.578;7.734;2022-08-19T11:28:27;25.80;99.90
18153;DHT22;9202;51.578;7.734;2022-08-19T11:30:31;26.00;99.90
18153;DHT22;9202;51.578;7.734;2022-08-19T11:32:35;26.00;99.90
18153;DHT22;9202;51.578;7.734;2022-08-19T11:34:39;26.10;99.90
18153;DHT22;9202;51.578;7.734;2022-08-19T11:36:45;26.20;99.90
18153;DHT22;9202;51.578;7.734;2022-08-19T11:38:50;26.40;99.90
18153;DHT22;9202;51.578;7.734;2022-08-19T11:40:58;26.70;99.90
18153;DHT22;9202;51.578;7.734;2022-08-19T11:43:02;26.50;99.90
18153;DHT22;9202;51.578;7.734;2022-08-19T11:45:07;26.50;99.90
18153;DHT22;9202;51.578;7.734;2022-08-19T11:47:11;26.60;99.90
18153;DHT22;9202;51.578;7.734;2022-08-19T11:49:17;27.00;99.90
18153;DHT22;9202;51.578;7.734;2022-08-19T11:51:23;27.50;99.90
18153;DHT22;9202;51.578;7.734;2022-08-19T11:53:27;27.70;99.90
18153;DHT22;9202;51.578;7.734;2022-08-19T11:55:32;27.80;99.90
18153;DHT22;9202;51.578;7.734;2022-08-19T11:57:36;27.80;99.90
18153;DHT22;9202;51.578;7.734;2022-08-19T11:59:39;27.70;99.90
18153;DHT22;9202;51.578;7.734;2022-08-19T12:01:43;27.80;99.90
18153;DHT22;9202;51.578;7.734;2022-08-19T12:03:49;27.70;99.90
18153;DHT22;9202;51.578;7.734;2022-08-19T12:05:53;27.80;99.90
18153;DHT22;9202;51.578;7.734;2022-08-19T12:07:57;27.80;99.90
18153;DHT22;9202;51.578;7.734;2022-08-19T12:10:01;27.90;99.90
18153;DHT22;9202;51.578;7.734;2022-08-19T12:12:07;27.70;99.90
18153;DHT22;9202;51.578;7.734;2022-08-19T12:14:11;27.70;99.90
18153;DHT22;9202;51.578;7.734;2022-08-19T12:16:18;27.60;99.90
18153;DHT22;9202;51.578;7.734;2022-08-19T12:18:22;27.40;99.90
18153;DHT22;9202;51.578;7.734;2022-08-19T12:20:27;27.10;99.90
18153;DHT22;9202;51.578;7.734;2022-08-19T12:22:30;26.90;99.90
18153;DHT22;9202;51.578;7.734;2022-08-19T12:24:34;26.80;99.90
18153;DHT22;9202;51.578;7.734;2022-08-19T12:26:38;26.80;99.90
18153;DHT22;9202;51.578;7.734;2022-08-19T12:28:44;27.00;99.90
18153;DHT22;9202;51.578;7.734;2022-08-19T12:30:49;27.30;99.90
18153;DHT22;9202;51.578;7.734;2022-08-19T12:32:54;27.60;99.90
18153;DHT22;9202;51.578;7.734;2022-08-19T12:35:00;27.80;99.90
18153;DHT22;9202;51.578;7.734;2022-08-19T12:37:05;27.90;99.90
18153;DHT22;9202;51.578;7.734;2022-08-19T12:39:09;28.00;99.90
18153;DHT22;9202;51.578;7.734;2022-08-19T12:41:15;28.20;99.90
18153;DHT22;9202;51.578;7.734;2022-08-19T12:43:21;28.10;99.90
18153;DHT22;9202;51.578;7.734;2022-08-19T12:45:24;28.10;99.90
18153;DHT22;9202;51.578;7.734;2022-08-19T12:47:28;28.10;99.90
18153;DHT22;9202;51.578;7.734;2022-08-19T12:49:35;28.10;99.90
18153;DHT22;9202;51.578;7.734;2022-08-19T12:54:39;28.20;99.90
18153;DHT22;9202;51.578;7.734;2022-08-19T12:59:03;28.30;99.90
18153;DHT22;9202;51.578;7.734;2022-08-19T13:01:09;28.30;99.90
18153;DHT22;9202;51.578;7.734;2022-08-19T13:03:13;28.30;99.90
18153;DHT22;9202;51.578;7.734;2022-08-19T13:05:19;28.40;99.90
18153;DHT22;9202;51.578;7.734;2022-08-19T13:07:24;28.30;99.90
18153;DHT22;9202;51.578;7.734;2022-08-19T13:09:27;28.20;99.90
18153;DHT22;9202;51.578;7.734;2022-08-19T13:11:31;28.00;99.90
18153;DHT22;9202;51.578;7.734;2022-08-19T13:13:36;28.10;99.90
18153;DHT22;9202;51.578;7.734;2022-08-19T13:15:42;28.10;99.90
18153;DHT22;9202;51.578;7.734;2022-08-19T13:17:48;28.10;99.90
18153;DHT22;9202;51.578;7.734;2022-08-19T13:19:53;28.00;99.90
18153;DHT22;9202;51.578;7.734;2022-08-19T13:21:57;27.90;99.90
18153;DHT22;9202;51.578;7.734;2022-08-19T13:24:03;27.70;99.90
18153;DHT22;9202;51.578;7.734;2022-08-19T13:26:09;27.70;99.90
18153;DHT22;9202;51.578;7.734;2022-08-19T13:28:13;27.80;99.90
18153;DHT22;9202;51.578;7.734;2022-08-19T13:30:19;27.80;99.90
18153;DHT22;9202;51.578;7.734;2022-08-19T13:32:42;27.80;99.90
18153;DHT22;9202;51.578;7.734;2022-08-19T13:35:04;27.80;99.90
18153;DHT22;9202;51.578;7.734;2022-08-19T13:37:08;28.00;99.90
18153;DHT22;9202;51.578;7.734;2022-08-19T13:39:12;28.00;99.90
18153;DHT22;9202;51.578;7.734;2022-08-19T13:41:16;28.00;99.90
18153;DHT22;9202;51.578;7.734;2022-08-19T13:43:25;28.00;99.90
18153;DHT22;9202;51.578;7.734;2022-08-19T13:47:47;28.00;99.90
18153;DHT22;9202;51.578;7.734;2022-08-19T13:49:51;27.90;99.90
18153;DHT22;9202;51.578;7.734;2022-08-19T13:54:12;28.10;99.90
18153;DHT22;9202;51.578;7.734;2022-08-19T13:56:18;28.20;99.90
18153;DHT22;9202;51.578;7.734;2022-08-19T13:58:24;28.20;99.90
18153;DHT22;9202;51.578;7.734;2022-08-19T14:00:30;28.20;99.90
18153;DHT22;9202;51.578;7.734;2022-08-19T14:02:34;28.30;99.90
18153;DHT22;9202;51.578;7.734;2022-08-19T14:04:38;28.10;99.90
18153;DHT22;9202;51.578;7.734;2022-08-19T14:06:41;28.10;99.90
18153;DHT22;9202;51.578;7.734;2022-08-19T14:11:01;28.10;99.90
18153;DHT22;9202;51.578;7.734;2022-08-19T14:13:06;28.00;99.90
18153;DHT22;9202;51.578;7.734;2022-08-19T14:15:12;28.10;99.90
18153;DHT22;9202;51.578;7.734;2022-08-19T14:17:16;28.20;99.90
18153;DHT22;9202;51.578;7.734;2022-08-19T14:19:19;28.20;99.90
18153;DHT22;9202;51.578;7.734;2022-08-19T14:21:24;28.10;99.90
18153;DHT22;9202;51.578;7.734;2022-08-19T14:23:28;28.20;99.90
18153;DHT22;9202;51.578;7.734;2022-08-19T14:25:33;28.20;99.90
18153;DHT22;9202;51.578;7.734;2022-08-19T14:27:38;28.20;99.90
18153;DHT22;9202;51.578;7.734;2022-08-19T14:29:42;28.30;99.90
18153;DHT22;9202;51.578;7.734;2022-08-19T14:31:45;28.40;99.90
18153;DHT22;9202;51.578;7.734;2022-08-19T14:33:49;28.60;99.90
18153;DHT22;9202;51.578;7.734;2022-08-19T14:35:53;28.50;99.90
18153;DHT22;9202;51.578;7.734;2022-08-19T14:40:18;28.20;99.70
18153;DHT22;9202;51.578;7.734;2022-08-19T14:42:24;28.10;99.90
18153;DHT22;9202;51.578;7.734;2022-08-19T14:44:28;28.20;99.90
18153;DHT22;9202;51.578;7.734;2022-08-19T14:46:33;28.30;99.90
18153;DHT22;9202;51.578;7.734;2022-08-19T14:48:37;28.40;99.90